Terminal Aerodrome Forecast
Issued by NWS

Home | Current Version | Previous Version | Text Only | Print | Product List | Glossary On
Versions: 1 2 3 4 5 6 7 8 9 10 11 12 13 14 15 16
000
FTUS42 TJSJ 251720
TAFJBQ
TAF
TJBQ 251720Z 2518/2618 08016G25KT P6SM SCT022 SCT090
     FM252330 10012KT P6SM SCT030 SCT050 BKN080
     FM260600 11008KT P6SM VCSH SCT022 SCT050
     FM261500 09016G24KT P6SM SCT030 SCT080
      AMD NOT SKED 2602/2611=

USA.gov is the U.S. government's official web portal to all federal, state and local government web resources and services.